sensor_id;sensor_type;location;lat;lon;timestamp;P1;durP1;ratioP1;P2;durP2;ratioP2
30062;SDS011;16889;67.864;24.990;2022-08-03T00:00:17;16.65;;;6.10;;
30062;SDS011;16889;67.864;24.990;2022-08-03T00:05:04;20.05;;;6.80;;
30062;SDS011;16889;67.864;24.990;2022-08-03T00:09:52;14.02;;;6.88;;
30062;SDS011;16889;67.864;24.990;2022-08-03T00:14:38;7.32;;;5.70;;
30062;SDS011;16889;67.864;24.990;2022-08-03T00:19:24;18.92;;;5.90;;
30062;SDS011;16889;67.864;24.990;2022-08-03T00:24:10;11.40;;;4.55;;
30062;SDS011;16889;67.864;24.990;2022-08-03T00:28:56;30.67;;;5.88;;
30062;SDS011;16889;67.864;24.990;2022-08-03T00:33:42;9.50;;;3.80;;
30062;SDS011;16889;67.864;24.990;2022-08-03T00:38:28;25.23;;;4.22;;
30062;SDS011;16889;67.864;24.990;2022-08-03T00:43:14;11.45;;;4.18;;
30062;SDS011;16889;67.864;24.990;2022-08-03T00:48:01;12.57;;;4.85;;
30062;SDS011;16889;67.864;24.990;2022-08-03T00:52:49;8.75;;;6.32;;
30062;SDS011;16889;67.864;24.990;2022-08-03T00:57:37;20.33;;;11.98;;
30062;SDS011;16889;67.864;24.990;2022-08-03T01:02:23;18.88;;;15.82;;
30062;SDS011;16889;67.864;24.990;2022-08-03T01:07:14;24.77;;;20.20;;
30062;SDS011;16889;67.864;24.990;2022-08-03T01:12:13;25.23;;;17.10;;
30062;SDS011;16889;67.864;24.990;2022-08-03T01:27:30;12.77;;;10.50;;
30062;SDS011;16889;67.864;24.990;2022-08-03T01:32:50;11.50;;;9.07;;
30062;SDS011;16889;67.864;24.990;2022-08-03T01:37:44;17.88;;;11.73;;
30062;SDS011;16889;67.864;24.990;2022-08-03T01:42:36;21.38;;;14.40;;
30062;SDS011;16889;67.864;24.990;2022-08-03T01:47:24;14.02;;;11.70;;
30062;SDS011;16889;67.864;24.990;2022-08-03T01:52:12;12.50;;;9.13;;
30062;SDS011;16889;67.864;24.990;2022-08-03T01:57:02;15.05;;;9.57;;
30062;SDS011;16889;67.864;24.990;2022-08-03T02:01:50;17.27;;;10.05;;
30062;SDS011;16889;67.864;24.990;2022-08-03T02:06:38;9.73;;;8.70;;
30062;SDS011;16889;67.864;24.990;2022-08-03T02:11:30;15.07;;;8.80;;
30062;SDS011;16889;67.864;24.990;2022-08-03T02:16:18;9.45;;;7.75;;
30062;SDS011;16889;67.864;24.990;2022-08-03T02:21:05;10.00;;;7.22;;
30062;SDS011;16889;67.864;24.990;2022-08-03T02:26:00;8.43;;;7.38;;
30062;SDS011;16889;67.864;24.990;2022-08-03T02:30:52;6.18;;;5.57;;
30062;SDS011;16889;67.864;24.990;2022-08-03T02:35:40;7.03;;;6.03;;
30062;SDS011;16889;67.864;24.990;2022-08-03T02:40:29;8.13;;;5.68;;
30062;SDS011;16889;67.864;24.990;2022-08-03T02:45:17;4.07;;;3.67;;
30062;SDS011;16889;67.864;24.990;2022-08-03T02:50:05;13.82;;;5.53;;
30062;SDS011;16889;67.864;24.990;2022-08-03T02:54:55;10.60;;;7.90;;
30062;SDS011;16889;67.864;24.990;2022-08-03T02:59:44;17.27;;;10.60;;
30062;SDS011;16889;67.864;24.990;2022-08-03T03:04:33;12.77;;;10.55;;
30062;SDS011;16889;67.864;24.990;2022-08-03T03:09:20;15.57;;;9.17;;
30062;SDS011;16889;67.864;24.990;2022-08-03T03:14:08;15.90;;;8.63;;
30062;SDS011;16889;67.864;24.990;2022-08-03T03:18:57;13.77;;;9.30;;
30062;SDS011;16889;67.864;24.990;2022-08-03T03:23:46;11.90;;;9.38;;
30062;SDS011;16889;67.864;24.990;2022-08-03T03:28:33;22.48;;;10.48;;
30062;SDS011;16889;67.864;24.990;2022-08-03T03:33:22;15.23;;;10.35;;
30062;SDS011;16889;67.864;24.990;2022-08-03T03:38:09;14.98;;;10.88;;
30062;SDS011;16889;67.864;24.990;2022-08-03T03:42:55;15.40;;;9.23;;
30062;SDS011;16889;67.864;24.990;2022-08-03T03:47:41;11.80;;;8.27;;
30062;SDS011;16889;67.864;24.990;2022-08-03T03:52:27;11.48;;;7.63;;
30062;SDS011;16889;67.864;24.990;2022-08-03T03:57:14;11.05;;;7.60;;
30062;SDS011;16889;67.864;24.990;2022-08-03T04:02:00;9.23;;;7.28;;
30062;SDS011;16889;67.864;24.990;2022-08-03T04:06:46;8.88;;;5.65;;
30062;SDS011;16889;67.864;24.990;2022-08-03T04:11:51;12.02;;;5.38;;
30062;SDS011;16889;67.864;24.990;2022-08-03T04:21:27;8.13;;;4.53;;
30062;SDS011;16889;67.864;24.990;2022-08-03T04:26:18;5.68;;;4.18;;
30062;SDS011;16889;67.864;24.990;2022-08-03T04:31:06;7.03;;;4.03;;
30062;SDS011;16889;67.864;24.990;2022-08-03T04:35:52;5.22;;;3.80;;
30062;SDS011;16889;67.864;24.990;2022-08-03T04:40:42;3.80;;;3.10;;
30062;SDS011;16889;67.864;24.990;2022-08-03T04:45:30;3.22;;;2.92;;
30062;SDS011;16889;67.864;24.990;2022-08-03T04:50:18;4.53;;;2.10;;
30062;SDS011;16889;67.864;24.990;2022-08-03T04:55:05;4.82;;;1.20;;
30062;SDS011;16889;67.864;24.990;2022-08-03T04:59:52;2.80;;;0.70;;
30062;SDS011;16889;67.864;24.990;2022-08-03T05:04:38;4.60;;;0.60;;
30062;SDS011;16889;67.864;24.990;2022-08-03T05:09:30;3.65;;;0.50;;
30062;SDS011;16889;67.864;24.990;2022-08-03T05:14:16;1.38;;;0.40;;
30062;SDS011;16889;67.864;24.990;2022-08-03T05:19:02;3.03;;;0.40;;
30062;SDS011;16889;67.864;24.990;2022-08-03T05:23:48;2.17;;;0.38;;
30062;SDS011;16889;67.864;24.990;2022-08-03T05:28:34;4.75;;;0.47;;
30062;SDS011;16889;67.864;24.990;2022-08-03T05:33:20;0.55;;;0.20;;
30062;SDS011;16889;67.864;24.990;2022-08-03T05:38:06;2.67;;;0.30;;
30062;SDS011;16889;67.864;24.990;2022-08-03T05:42:52;3.95;;;0.40;;
30062;SDS011;16889;67.864;24.990;2022-08-03T05:47:38;1.58;;;0.47;;
30062;SDS011;16889;67.864;24.990;2022-08-03T05:52:24;1.98;;;0.57;;
30062;SDS011;16889;67.864;24.990;2022-08-03T05:57:11;3.10;;;0.22;;
30062;SDS011;16889;67.864;24.990;2022-08-03T06:01:57;0.70;;;0.30;;
30062;SDS011;16889;67.864;24.990;2022-08-03T06:06:43;2.20;;;0.30;;
30062;SDS011;16889;67.864;24.990;2022-08-03T06:11:29;5.95;;;0.40;;
30062;SDS011;16889;67.864;24.990;2022-08-03T06:16:15;0.88;;;0.20;;
30062;SDS011;16889;67.864;24.990;2022-08-03T06:21:02;3.42;;;0.20;;
30062;SDS011;16889;67.864;24.990;2022-08-03T06:25:48;1.48;;;0.30;;
30062;SDS011;16889;67.864;24.990;2022-08-03T06:30:34;2.10;;;0.22;;
30062;SDS011;16889;67.864;24.990;2022-08-03T06:35:20;1.77;;;0.30;;
30062;SDS011;16889;67.864;24.990;2022-08-03T06:40:07;1.10;;;0.20;;
30062;SDS011;16889;67.864;24.990;2022-08-03T06:44:53;3.42;;;0.38;;
30062;SDS011;16889;67.864;24.990;2022-08-03T06:49:39;1.63;;;0.20;;
30062;SDS011;16889;67.864;24.990;2022-08-03T06:54:25;4.20;;;0.30;;
30062;SDS011;16889;67.864;24.990;2022-08-03T06:59:11;1.73;;;0.30;;
30062;SDS011;16889;67.864;24.990;2022-08-03T07:03:57;1.42;;;0.30;;
30062;SDS011;16889;67.864;24.990;2022-08-03T07:08:44;1.60;;;0.30;;
30062;SDS011;16889;67.864;24.990;2022-08-03T07:13:30;2.08;;;0.20;;
30062;SDS011;16889;67.864;24.990;2022-08-03T07:18:16;1.13;;;0.13;;
30062;SDS011;16889;67.864;24.990;2022-08-03T07:23:02;1.58;;;0.15;;
30062;SDS011;16889;67.864;24.990;2022-08-03T07:27:48;5.43;;;0.30;;
30062;SDS011;16889;67.864;24.990;2022-08-03T07:32:34;1.17;;;0.20;;
30062;SDS011;16889;67.864;24.990;2022-08-03T07:37:20;1.00;;;0.30;;
30062;SDS011;16889;67.864;24.990;2022-08-03T07:42:06;1.95;;;0.32;;
30062;SDS011;16889;67.864;24.990;2022-08-03T07:46:52;1.70;;;0.30;;
30062;SDS011;16889;67.864;24.990;2022-08-03T07:51:38;1.23;;;0.20;;
30062;SDS011;16889;67.864;24.990;2022-08-03T07:56:24;1.17;;;0.20;;
30062;SDS011;16889;67.864;24.990;2022-08-03T08:01:10;0.85;;;0.20;;
30062;SDS011;16889;67.864;24.990;2022-08-03T08:05:56;2.55;;;0.30;;
30062;SDS011;16889;67.864;24.990;2022-08-03T08:10:42;3.38;;;0.20;;
30062;SDS011;16889;67.864;24.990;2022-08-03T08:15:28;2.80;;;0.20;;
30062;SDS011;16889;67.864;24.990;2022-08-03T08:20:20;1.65;;;0.20;;
30062;SDS011;16889;67.864;24.990;2022-08-03T08:25:16;2.30;;;0.28;;
30062;SDS011;16889;67.864;24.990;2022-08-03T08:30:03;0.95;;;0.20;;
30062;SDS011;16889;67.864;24.990;2022-08-03T08:34:49;4.57;;;0.20;;
30062;SDS011;16889;67.864;24.990;2022-08-03T08:39:35;1.48;;;0.20;;
30062;SDS011;16889;67.864;24.990;2022-08-03T08:44:21;0.63;;;0.10;;
30062;SDS011;16889;67.864;24.990;2022-08-03T08:49:07;0.65;;;0.20;;
30062;SDS011;16889;67.864;24.990;2022-08-03T08:53:54;3.85;;;0.30;;
30062;SDS011;16889;67.864;24.990;2022-08-03T08:58:52;1.05;;;0.20;;
30062;SDS011;16889;67.864;24.990;2022-08-03T09:03:42;1.58;;;0.20;;
30062;SDS011;16889;67.864;24.990;2022-08-03T09:08:29;0.55;;;0.20;;
30062;SDS011;16889;67.864;24.990;2022-08-03T09:13:16;0.68;;;0.20;;
30062;SDS011;16889;67.864;24.990;2022-08-03T09:18:03;0.85;;;0.20;;
30062;SDS011;16889;67.864;24.990;2022-08-03T09:23:00;1.80;;;0.20;;
30062;SDS011;16889;67.864;24.990;2022-08-03T09:28:02;1.42;;;0.30;;
30062;SDS011;16889;67.864;24.990;2022-08-03T09:32:50;0.43;;;0.20;;
30062;SDS011;16889;67.864;24.990;2022-08-03T09:37:44;0.65;;;0.17;;
30062;SDS011;16889;67.864;24.990;2022-08-03T09:42:30;0.52;;;0.20;;
30062;SDS011;16889;67.864;24.990;2022-08-03T09:47:33;1.55;;;0.30;;
30062;SDS011;16889;67.864;24.990;2022-08-03T09:52:28;4.18;;;0.25;;
30062;SDS011;16889;67.864;24.990;2022-08-03T09:57:21;0.10;;;0.10;;
30062;SDS011;16889;67.864;24.990;2022-08-03T10:02:17;0.40;;;0.20;;
30062;SDS011;16889;67.864;24.990;2022-08-03T10:07:07;1.85;;;0.20;;
30062;SDS011;16889;67.864;24.990;2022-08-03T10:11:54;1.42;;;0.17;;
30062;SDS011;16889;67.864;24.990;2022-08-03T10:16:41;1.67;;;0.40;;
30062;SDS011;16889;67.864;24.990;2022-08-03T10:21:28;0.10;;;0.10;;
30062;SDS011;16889;67.864;24.990;2022-08-03T10:26:18;1.65;;;0.30;;
30062;SDS011;16889;67.864;24.990;2022-08-03T10:31:07;1.65;;;0.20;;
30062;SDS011;16889;67.864;24.990;2022-08-03T10:35:55;1.85;;;0.32;;
30062;SDS011;16889;67.864;24.990;2022-08-03T10:40:44;2.58;;;0.30;;
30062;SDS011;16889;67.864;24.990;2022-08-03T10:45:31;2.47;;;0.20;;
30062;SDS011;16889;67.864;24.990;2022-08-03T10:50:22;1.85;;;0.40;;
30062;SDS011;16889;67.864;24.990;2022-08-03T11:00:49;0.60;;;0.30;;
30062;SDS011;16889;67.864;24.990;2022-08-03T11:05:45;0.57;;;0.38;;
30062;SDS011;16889;67.864;24.990;2022-08-03T11:10:33;0.98;;;0.32;;
30062;SDS011;16889;67.864;24.990;2022-08-03T11:15:30;4.03;;;0.47;;
30062;SDS011;16889;67.864;24.990;2022-08-03T11:20:17;1.10;;;0.30;;
30062;SDS011;16889;67.864;24.990;2022-08-03T11:25:37;2.25;;;0.30;;
30062;SDS011;16889;67.864;24.990;2022-08-03T11:30:55;4.15;;;0.52;;
30062;SDS011;16889;67.864;24.990;2022-08-03T11:36:01;1.85;;;0.40;;
30062;SDS011;16889;67.864;24.990;2022-08-03T11:40:48;3.75;;;0.47;;
30062;SDS011;16889;67.864;24.990;2022-08-03T11:45:36;1.85;;;0.30;;
30062;SDS011;16889;67.864;24.990;2022-08-03T11:50:23;1.98;;;0.50;;
30062;SDS011;16889;67.864;24.990;2022-08-03T11:55:10;5.63;;;0.60;;
30062;SDS011;16889;67.864;24.990;2022-08-03T11:59:58;1.77;;;0.47;;
30062;SDS011;16889;67.864;24.990;2022-08-03T12:04:50;1.77;;;0.40;;
30062;SDS011;16889;67.864;24.990;2022-08-03T12:09:37;3.15;;;0.52;;
30062;SDS011;16889;67.864;24.990;2022-08-03T12:14:25;1.30;;;0.50;;
30062;SDS011;16889;67.864;24.990;2022-08-03T12:19:13;3.30;;;0.50;;
30062;SDS011;16889;67.864;24.990;2022-08-03T12:24:01;3.38;;;0.43;;
30062;SDS011;16889;67.864;24.990;2022-08-03T12:28:48;3.53;;;0.63;;
30062;SDS011;16889;67.864;24.990;2022-08-03T12:38:53;1.35;;;0.43;;
30062;SDS011;16889;67.864;24.990;2022-08-03T12:43:48;2.10;;;0.50;;
30062;SDS011;16889;67.864;24.990;2022-08-03T12:48:34;1.55;;;0.50;;
30062;SDS011;16889;67.864;24.990;2022-08-03T12:53:27;1.58;;;0.50;;
30062;SDS011;16889;67.864;24.990;2022-08-03T12:58:27;1.52;;;0.40;;
30062;SDS011;16889;67.864;24.990;2022-08-03T13:03:18;2.33;;;0.43;;
30062;SDS011;16889;67.864;24.990;2022-08-03T13:08:04;2.10;;;0.40;;
30062;SDS011;16889;67.864;24.990;2022-08-03T13:13:05;2.97;;;0.30;;
30062;SDS011;16889;67.864;24.990;2022-08-03T13:17:53;4.67;;;0.50;;
30062;SDS011;16889;67.864;24.990;2022-08-03T13:22:40;2.92;;;0.65;;
30062;SDS011;16889;67.864;24.990;2022-08-03T13:27:27;2.20;;;0.63;;
30062;SDS011;16889;67.864;24.990;2022-08-03T13:32:14;2.40;;;0.40;;
30062;SDS011;16889;67.864;24.990;2022-08-03T13:37:00;4.70;;;0.50;;
30062;SDS011;16889;67.864;24.990;2022-08-03T13:41:46;2.45;;;0.52;;
30062;SDS011;16889;67.864;24.990;2022-08-03T13:46:32;3.20;;;0.60;;
30062;SDS011;16889;67.864;24.990;2022-08-03T13:51:18;1.17;;;0.50;;
30062;SDS011;16889;67.864;24.990;2022-08-03T13:56:04;2.95;;;0.50;;
30062;SDS011;16889;67.864;24.990;2022-08-03T14:00:50;2.72;;;0.60;;
30062;SDS011;16889;67.864;24.990;2022-08-03T14:05:36;3.22;;;0.50;;
30062;SDS011;16889;67.864;24.990;2022-08-03T14:10:22;2.10;;;0.52;;
30062;SDS011;16889;67.864;24.990;2022-08-03T14:15:08;2.00;;;0.70;;
30062;SDS011;16889;67.864;24.990;2022-08-03T14:19:57;1.85;;;0.50;;
30062;SDS011;16889;67.864;24.990;2022-08-03T14:24:43;2.85;;;0.50;;
30062;SDS011;16889;67.864;24.990;2022-08-03T14:29:28;6.78;;;1.00;;
30062;SDS011;16889;67.864;24.990;2022-08-03T14:34:14;6.82;;;0.82;;
30062;SDS011;16889;67.864;24.990;2022-08-03T14:39:00;1.67;;;0.70;;
30062;SDS011;16889;67.864;24.990;2022-08-03T14:43:46;6.03;;;0.77;;
30062;SDS011;16889;67.864;24.990;2022-08-03T14:48:33;4.50;;;0.90;;
30062;SDS011;16889;67.864;24.990;2022-08-03T14:53:19;4.40;;;0.90;;
30062;SDS011;16889;67.864;24.990;2022-08-03T14:58:05;3.75;;;1.00;;
30062;SDS011;16889;67.864;24.990;2022-08-03T15:02:51;2.83;;;0.90;;
30062;SDS011;16889;67.864;24.990;2022-08-03T15:07:37;2.08;;;0.90;;
30062;SDS011;16889;67.864;24.990;2022-08-03T15:12:23;4.10;;;1.00;;
30062;SDS011;16889;67.864;24.990;2022-08-03T15:17:10;2.45;;;0.73;;
30062;SDS011;16889;67.864;24.990;2022-08-03T15:21:56;3.15;;;0.80;;
30062;SDS011;16889;67.864;24.990;2022-08-03T15:26:42;3.60;;;0.70;;
30062;SDS011;16889;67.864;24.990;2022-08-03T15:31:28;2.30;;;0.75;;
30062;SDS011;16889;67.864;24.990;2022-08-03T15:36:14;1.85;;;0.82;;
30062;SDS011;16889;67.864;24.990;2022-08-03T15:41:00;2.75;;;0.77;;
30062;SDS011;16889;67.864;24.990;2022-08-03T15:45:47;2.95;;;1.00;;
30062;SDS011;16889;67.864;24.990;2022-08-03T15:50:33;2.80;;;0.80;;
30062;SDS011;16889;67.864;24.990;2022-08-03T15:55:19;3.13;;;0.93;;
30062;SDS011;16889;67.864;24.990;2022-08-03T16:00:05;2.72;;;0.70;;
30062;SDS011;16889;67.864;24.990;2022-08-03T16:04:53;3.05;;;0.98;;
30062;SDS011;16889;67.864;24.990;2022-08-03T16:09:39;1.73;;;0.60;;
30062;SDS011;16889;67.864;24.990;2022-08-03T16:14:25;1.92;;;0.70;;
30062;SDS011;16889;67.864;24.990;2022-08-03T16:19:11;3.78;;;0.73;;
30062;SDS011;16889;67.864;24.990;2022-08-03T16:23:57;3.20;;;0.60;;
30062;SDS011;16889;67.864;24.990;2022-08-03T16:28:45;4.13;;;0.80;;
30062;SDS011;16889;67.864;24.990;2022-08-03T16:33:31;2.10;;;0.90;;
30062;SDS011;16889;67.864;24.990;2022-08-03T16:38:18;6.22;;;0.95;;
30062;SDS011;16889;67.864;24.990;2022-08-03T16:43:13;4.10;;;0.75;;
30062;SDS011;16889;67.864;24.990;2022-08-03T16:48:00;3.22;;;0.50;;
30062;SDS011;16889;67.864;24.990;2022-08-03T16:52:46;2.33;;;0.68;;
30062;SDS011;16889;67.864;24.990;2022-08-03T16:57:32;1.75;;;0.60;;
30062;SDS011;16889;67.864;24.990;2022-08-03T17:02:22;3.35;;;0.70;;
30062;SDS011;16889;67.864;24.990;2022-08-03T17:07:10;4.22;;;0.80;;
30062;SDS011;16889;67.864;24.990;2022-08-03T17:11:56;1.30;;;0.40;;
30062;SDS011;16889;67.864;24.990;2022-08-03T17:16:43;1.27;;;0.60;;
30062;SDS011;16889;67.864;24.990;2022-08-03T17:21:32;1.48;;;0.57;;
30062;SDS011;16889;67.864;24.990;2022-08-03T17:26:21;4.35;;;0.55;;
30062;SDS011;16889;67.864;24.990;2022-08-03T17:31:09;3.83;;;0.80;;
30062;SDS011;16889;67.864;24.990;2022-08-03T17:35:59;2.25;;;0.80;;
30062;SDS011;16889;67.864;24.990;2022-08-03T17:40:45;5.13;;;0.85;;
30062;SDS011;16889;67.864;24.990;2022-08-03T17:45:31;3.00;;;0.82;;
30062;SDS011;16889;67.864;24.990;2022-08-03T17:50:17;3.45;;;1.20;;
30062;SDS011;16889;67.864;24.990;2022-08-03T17:55:20;6.13;;;1.00;;
30062;SDS011;16889;67.864;24.990;2022-08-03T18:00:09;4.90;;;0.85;;
30062;SDS011;16889;67.864;24.990;2022-08-03T18:05:16;6.38;;;1.10;;
30062;SDS011;16889;67.864;24.990;2022-08-03T18:10:05;3.25;;;0.95;;
30062;SDS011;16889;67.864;24.990;2022-08-03T18:14:55;6.65;;;1.15;;
30062;SDS011;16889;67.864;24.990;2022-08-03T18:19:44;2.55;;;1.00;;
30062;SDS011;16889;67.864;24.990;2022-08-03T18:24:31;1.80;;;0.87;;
30062;SDS011;16889;67.864;24.990;2022-08-03T18:29:18;4.07;;;1.10;;
30062;SDS011;16889;67.864;24.990;2022-08-03T18:34:06;7.95;;;0.90;;
30062;SDS011;16889;67.864;24.990;2022-08-03T18:38:53;3.53;;;0.90;;
30062;SDS011;16889;67.864;24.990;2022-08-03T18:43:42;1.73;;;0.80;;
30062;SDS011;16889;67.864;24.990;2022-08-03T19:03:25;2.55;;;0.88;;
30062;SDS011;16889;67.864;24.990;2022-08-03T19:08:16;2.53;;;0.80;;
30062;SDS011;16889;67.864;24.990;2022-08-03T19:13:12;1.17;;;0.65;;
30062;SDS011;16889;67.864;24.990;2022-08-03T19:18:09;4.13;;;0.90;;
30062;SDS011;16889;67.864;24.990;2022-08-03T19:23:04;3.22;;;0.90;;
30062;SDS011;16889;67.864;24.990;2022-08-03T19:27:51;3.90;;;0.70;;
30062;SDS011;16889;67.864;24.990;2022-08-03T19:32:37;1.42;;;0.63;;
30062;SDS011;16889;67.864;24.990;2022-08-03T19:37:25;2.70;;;0.70;;
30062;SDS011;16889;67.864;24.990;2022-08-03T19:42:12;0.50;;;0.50;;
30062;SDS011;16889;67.864;24.990;2022-08-03T19:47:01;3.20;;;0.80;;
30062;SDS011;16889;67.864;24.990;2022-08-03T19:52:11;2.53;;;0.70;;
30062;SDS011;16889;67.864;24.990;2022-08-03T19:57:00;0.95;;;0.70;;
30062;SDS011;16889;67.864;24.990;2022-08-03T20:01:47;0.60;;;0.60;;
30062;SDS011;16889;67.864;24.990;2022-08-03T20:06:33;1.00;;;0.60;;
30062;SDS011;16889;67.864;24.990;2022-08-03T20:11:20;0.60;;;0.60;;
30062;SDS011;16889;67.864;24.990;2022-08-03T20:16:06;1.67;;;0.60;;
30062;SDS011;16889;67.864;24.990;2022-08-03T20:20:52;1.40;;;0.60;;
30062;SDS011;16889;67.864;24.990;2022-08-03T20:25:41;0.75;;;0.70;;
30062;SDS011;16889;67.864;24.990;2022-08-03T20:30:35;0.60;;;0.60;;
30062;SDS011;16889;67.864;24.990;2022-08-03T20:35:21;1.38;;;0.57;;
30062;SDS011;16889;67.864;24.990;2022-08-03T20:40:07;0.50;;;0.50;;
30062;SDS011;16889;67.864;24.990;2022-08-03T20:44:53;2.92;;;0.60;;
30062;SDS011;16889;67.864;24.990;2022-08-03T20:49:39;1.95;;;0.73;;
30062;SDS011;16889;67.864;24.990;2022-08-03T20:54:27;3.40;;;0.60;;
30062;SDS011;16889;67.864;24.990;2022-08-03T20:59:13;0.90;;;0.60;;
30062;SDS011;16889;67.864;24.990;2022-08-03T21:04:00;0.90;;;0.60;;
30062;SDS011;16889;67.864;24.990;2022-08-03T21:08:51;0.60;;;0.50;;
30062;SDS011;16889;67.864;24.990;2022-08-03T21:13:51;0.60;;;0.40;;
30062;SDS011;16889;67.864;24.990;2022-08-03T21:18:49;0.98;;;0.40;;
30062;SDS011;16889;67.864;24.990;2022-08-03T21:23:36;0.40;;;0.40;;
30062;SDS011;16889;67.864;24.990;2022-08-03T21:28:25;0.82;;;0.50;;
30062;SDS011;16889;67.864;24.990;2022-08-03T21:33:12;1.52;;;0.43;;
30062;SDS011;16889;67.864;24.990;2022-08-03T21:37:59;2.10;;;0.50;;
30062;SDS011;16889;67.864;24.990;2022-08-03T21:43:04;3.88;;;0.70;;
30062;SDS011;16889;67.864;24.990;2022-08-03T21:47:51;2.10;;;0.65;;
30062;SDS011;16889;67.864;24.990;2022-08-03T21:52:44;0.98;;;0.70;;
30062;SDS011;16889;67.864;24.990;2022-08-03T21:57:32;2.47;;;0.70;;
30062;SDS011;16889;67.864;24.990;2022-08-03T22:02:20;1.27;;;0.70;;
30062;SDS011;16889;67.864;24.990;2022-08-03T22:07:15;1.00;;;0.70;;
30062;SDS011;16889;67.864;24.990;2022-08-03T22:12:01;2.38;;;0.90;;
30062;SDS011;16889;67.864;24.990;2022-08-03T22:16:48;2.08;;;0.80;;
30062;SDS011;16889;67.864;24.990;2022-08-03T22:21:34;2.45;;;0.80;;
30062;SDS011;16889;67.864;24.990;2022-08-03T22:26:23;0.60;;;0.60;;
30062;SDS011;16889;67.864;24.990;2022-08-03T22:31:12;2.22;;;0.80;;
30062;SDS011;16889;67.864;24.990;2022-08-03T22:35:58;3.03;;;0.60;;
30062;SDS011;16889;67.864;24.990;2022-08-03T22:40:49;1.27;;;0.70;;
30062;SDS011;16889;67.864;24.990;2022-08-03T22:45:36;1.73;;;0.80;;
30062;SDS011;16889;67.864;24.990;2022-08-03T22:50:23;4.10;;;0.95;;
30062;SDS011;16889;67.864;24.990;2022-08-03T22:59:59;1.27;;;0.82;;
30062;SDS011;16889;67.864;24.990;2022-08-03T23:04:56;1.83;;;1.00;;
30062;SDS011;16889;67.864;24.990;2022-08-03T23:09:46;2.67;;;1.10;;
30062;SDS011;16889;67.864;24.990;2022-08-03T23:14:34;2.95;;;0.90;;
30062;SDS011;16889;67.864;24.990;2022-08-03T23:19:23;1.17;;;0.95;;
30062;SDS011;16889;67.864;24.990;2022-08-03T23:24:10;1.48;;;0.90;;
30062;SDS011;16889;67.864;24.990;2022-08-03T23:29:00;1.83;;;1.00;;
30062;SDS011;16889;67.864;24.990;2022-08-03T23:33:47;2.90;;;1.00;;
30062;SDS011;16889;67.864;24.990;2022-08-03T23:38:57;1.83;;;1.40;;
30062;SDS011;16889;67.864;24.990;2022-08-03T23:43:47;2.95;;;1.77;;
30062;SDS011;16889;67.864;24.990;2022-08-03T23:48:34;4.17;;;2.30;;
30062;SDS011;16889;67.864;24.990;2022-08-03T23:53:21;3.45;;;2.28;;
